Airfield :







YOU CAN JOIN US ON...

 
LOGIN :

Register | Disclaimer

   EN    FR    IT 

 









Legend :    VFR   Marginal VFR   IFR   Intensive IFR   Very Intensive IFR
Visi :
Ceiling :
>= 8 km
>= 3000ft
5 to 8 km
1000 to 3000 ft
1500m to 5 km
500 to 1000 ft
800 to 1500m
200 to 500 ft
< 800m
< 200 ft
Symbols :   Thunderstorms  Fog  Heavy snow  Heavy precipitations  Wind > 20 kt







- Airport Elevation : 1040 ft


KAFN - Jaffrey Silver Ranch

CURRENT METAR :
  • 221352Z AUTO VRB05KT 10SM OVC005 12/11 A3012 RMK AO2 SLP206 T01220106

EXPIRED METARs :
  • 221344Z AUTO VRB04KT 10SM OVC005 12/11 A3012 RMK AO2 T01220106
  • 221334Z AUTO VRB05KT 10SM OVC004 12/11 A3012 RMK AO2 T01170106
  • 221321Z AUTO 00000KT 10SM OVC005 12/11 A3012 RMK AO2 CIG 003V007 T01170106
  • 221252Z AUTO 03003KT 10SM OVC008 11/10 A3012 RMK AO2 CIG 003V011 SLP208 T01110100
  • 221240Z AUTO VRB03KT 10SM SCT002 OVC009 11/10 A3012 RMK AO2 CIG 007V011 T01060100
  • 221230Z AUTO VRB03KT 9SM BKN002 OVC011 11/09 A3013 RMK AO2 T01060094
  • 221222Z AUTO VRB03KT 2SM BR OVC002 10/09 A3013 RMK AO2 T01000094
  • 221152Z AUTO VRB03KT 1/4SM FG VV002 10/09 A3012 RMK AO2 SLP207 70001 T01000089 10100 20078 53008

TAF N/A
KZBW FIR / North America



MET'MAP, your aeronautical weather chart ! - Copyright ORBIFLY December 2007 - Disclaimer

ORBIFLY MET'MAP TEAM :

Programming & Development : Alexandra Zaïnal
Concept & Development : Baudouin d'Aumeries
Co-Development & Prog : Marc-Olivier Méhu
Technical & hardware support : Manuel Goepfert

Contact : metmap@orbifly.com




SOURCES & CREDITS :

   NOAA